< < Back
Terminal Aerodrome Forecast


Current Version              Previous Versions:   1  2  3  4  5  6  7  8  9  

Terminal Aerodrome Forecast

374
FTUS42 KFFC 231128
TAFFTY
TAF
KFTY 231128Z 2312/2412 08010KT 5SM -RA BR OVC006
     FM231400 10012G20KT 5SM -SHRA BR OVC007
     FM232300 15009G18KT 6SM BR VCSH OVC009
     FM240500 19009KT 4SM BR OVC007=

Latest METAR

742
SAUS70 KWBC 231300 RRF
MTRFTY
METAR KFTY 231253Z 07008KT 2SM RA BR OVC006 09/08 A3003 RMK AO2 SLP169
P0007 T00890078


USA.gov is the U.S. government's official web portal to all federal, state and local government web resources and services.